sensor_id;sensor_type;location;lat;lon;timestamp;P1;P2;P0
48893;PMS5003;34710;35.798;139.446;2023-04-24T00:01:37;12;9;
48893;PMS5003;34710;35.798;139.446;2023-04-24T00:04:02;10;8;
48893;PMS5003;34710;35.798;139.446;2023-04-24T00:06:28;12;9;
48893;PMS5003;34710;35.798;139.446;2023-04-24T00:08:53;9;8;
48893;PMS5003;34710;35.798;139.446;2023-04-24T00:11:18;9;9;
48893;PMS5003;34710;35.798;139.446;2023-04-24T00:13:43;10;9;
48893;PMS5003;34710;35.798;139.446;2023-04-24T00:16:08;13;11;
48893;PMS5003;34710;35.798;139.446;2023-04-24T00:18:34;16;9;
48893;PMS5003;34710;35.798;139.446;2023-04-24T00:20:59;10;9;
48893;PMS5003;34710;35.798;139.446;2023-04-24T00:23:24;9;8;
48893;PMS5003;34710;35.798;139.446;2023-04-24T00:25:49;11;8;
48893;PMS5003;34710;35.798;139.446;2023-04-24T00:28:14;16;8;
48893;PMS5003;34710;35.798;139.446;2023-04-24T00:30:40;8;7;
48893;PMS5003;34710;35.798;139.446;2023-04-24T00:33:05;8;8;
48893;PMS5003;34710;35.798;139.446;2023-04-24T00:35:30;9;8;
48893;PMS5003;34710;35.798;139.446;2023-04-24T00:37:55;9;9;
48893;PMS5003;34710;35.798;139.446;2023-04-24T00:40:20;11;9;
48893;PMS5003;34710;35.798;139.446;2023-04-24T00:42:45;12;8;
48893;PMS5003;34710;35.798;139.446;2023-04-24T00:45:11;11;9;
48893;PMS5003;34710;35.798;139.446;2023-04-24T00:47:36;9;7;
48893;PMS5003;34710;35.798;139.446;2023-04-24T00:50:01;14;10;
48893;PMS5003;34710;35.798;139.446;2023-04-24T00:52:26;12;8;
48893;PMS5003;34710;35.798;139.446;2023-04-24T00:54:51;10;9;
48893;PMS5003;34710;35.798;139.446;2023-04-24T00:57:17;12;8;
48893;PMS5003;34710;35.798;139.446;2023-04-24T00:59:42;5;5;
48893;PMS5003;34710;35.798;139.446;2023-04-24T01:02:08;9;8;
48893;PMS5003;34710;35.798;139.446;2023-04-24T01:04:34;9;8;
48893;PMS5003;34710;35.798;139.446;2023-04-24T01:07:00;10;8;
48893;PMS5003;34710;35.798;139.446;2023-04-24T01:09:25;12;11;
48893;PMS5003;34710;35.798;139.446;2023-04-24T01:11:50;11;9;
48893;PMS5003;34710;35.798;139.446;2023-04-24T01:14:15;10;9;
48893;PMS5003;34710;35.798;139.446;2023-04-24T01:16:40;12;10;
48893;PMS5003;34710;35.798;139.446;2023-04-24T01:19:06;8;8;
48893;PMS5003;34710;35.798;139.446;2023-04-24T01:21:30;10;10;
48893;PMS5003;34710;35.798;139.446;2023-04-24T01:23:56;11;11;
48893;PMS5003;34710;35.798;139.446;2023-04-24T01:26:21;7;7;
48893;PMS5003;34710;35.798;139.446;2023-04-24T01:28:47;10;7;
48893;PMS5003;34710;35.798;139.446;2023-04-24T01:31:12;10;8;
48893;PMS5003;34710;35.798;139.446;2023-04-24T01:33:37;10;10;
48893;PMS5003;34710;35.798;139.446;2023-04-24T01:36:02;13;9;
48893;PMS5003;34710;35.798;139.446;2023-04-24T01:38:27;11;8;
48893;PMS5003;34710;35.798;139.446;2023-04-24T01:40:53;10;10;
48893;PMS5003;34710;35.798;139.446;2023-04-24T01:43:18;12;9;
48893;PMS5003;34710;35.798;139.446;2023-04-24T01:45:43;10;9;
48893;PMS5003;34710;35.798;139.446;2023-04-24T01:48:08;10;7;
48893;PMS5003;34710;35.798;139.446;2023-04-24T01:50:33;12;9;
48893;PMS5003;34710;35.798;139.446;2023-04-24T01:52:59;7;7;
48893;PMS5003;34710;35.798;139.446;2023-04-24T01:55:24;13;11;
48893;PMS5003;34710;35.798;139.446;2023-04-24T01:57:49;12;10;
48893;PMS5003;34710;35.798;139.446;2023-04-24T02:00:14;17;13;
48893;PMS5003;34710;35.798;139.446;2023-04-24T02:02:39;9;8;
48893;PMS5003;34710;35.798;139.446;2023-04-24T02:05:06;18;9;
48893;PMS5003;34710;35.798;139.446;2023-04-24T02:07:30;10;10;
48893;PMS5003;34710;35.798;139.446;2023-04-24T02:09:56;12;9;
48893;PMS5003;34710;35.798;139.446;2023-04-24T02:12:21;11;10;
48893;PMS5003;34710;35.798;139.446;2023-04-24T02:14:46;7;7;
48893;PMS5003;34710;35.798;139.446;2023-04-24T02:17:12;14;11;
48893;PMS5003;34710;35.798;139.446;2023-04-24T02:19:37;11;10;
48893;PMS5003;34710;35.798;139.446;2023-04-24T02:22:02;12;8;
48893;PMS5003;34710;35.798;139.446;2023-04-24T02:24:27;13;11;
48893;PMS5003;34710;35.798;139.446;2023-04-24T02:26:53;10;9;
48893;PMS5003;34710;35.798;139.446;2023-04-24T02:29:18;10;9;
48893;PMS5003;34710;35.798;139.446;2023-04-24T02:31:43;9;9;
48893;PMS5003;34710;35.798;139.446;2023-04-24T02:34:08;14;11;
48893;PMS5003;34710;35.798;139.446;2023-04-24T02:36:33;11;10;
48893;PMS5003;34710;35.798;139.446;2023-04-24T02:38:58;10;10;
48893;PMS5003;34710;35.798;139.446;2023-04-24T02:41:24;10;9;
48893;PMS5003;34710;35.798;139.446;2023-04-24T02:43:49;10;9;
48893;PMS5003;34710;35.798;139.446;2023-04-24T02:46:14;12;9;
48893;PMS5003;34710;35.798;139.446;2023-04-24T02:48:39;12;11;
48893;PMS5003;34710;35.798;139.446;2023-04-24T02:51:05;10;10;
48893;PMS5003;34710;35.798;139.446;2023-04-24T02:53:30;11;9;
48893;PMS5003;34710;35.798;139.446;2023-04-24T02:55:56;7;7;
48893;PMS5003;34710;35.798;139.446;2023-04-24T02:58:21;9;9;
48893;PMS5003;34710;35.798;139.446;2023-04-24T03:00:46;10;7;
48893;PMS5003;34710;35.798;139.446;2023-04-24T03:03:11;12;9;
48893;PMS5003;34710;35.798;139.446;2023-04-24T03:05:36;9;8;
48893;PMS5003;34710;35.798;139.446;2023-04-24T03:08:01;8;6;
48893;PMS5003;34710;35.798;139.446;2023-04-24T03:10:27;12;9;
48893;PMS5003;34710;35.798;139.446;2023-04-24T03:12:52;12;10;
48893;PMS5003;34710;35.798;139.446;2023-04-24T03:15:18;10;9;
48893;PMS5003;34710;35.798;139.446;2023-04-24T03:17:43;10;9;
48893;PMS5003;34710;35.798;139.446;2023-04-24T03:20:09;13;12;
48893;PMS5003;34710;35.798;139.446;2023-04-24T03:22:33;11;8;
48893;PMS5003;34710;35.798;139.446;2023-04-24T03:24:58;10;9;
48893;PMS5003;34710;35.798;139.446;2023-04-24T03:27:24;9;9;
48893;PMS5003;34710;35.798;139.446;2023-04-24T03:29:49;9;9;
48893;PMS5003;34710;35.798;139.446;2023-04-24T03:32:14;10;9;
48893;PMS5003;34710;35.798;139.446;2023-04-24T03:34:40;8;7;
48893;PMS5003;34710;35.798;139.446;2023-04-24T03:37:05;10;9;
48893;PMS5003;34710;35.798;139.446;2023-04-24T03:39:30;9;7;
48893;PMS5003;34710;35.798;139.446;2023-04-24T03:41:55;12;9;
48893;PMS5003;34710;35.798;139.446;2023-04-24T03:44:20;9;9;
48893;PMS5003;34710;35.798;139.446;2023-04-24T03:46:45;9;9;
48893;PMS5003;34710;35.798;139.446;2023-04-24T03:49:11;12;9;
48893;PMS5003;34710;35.798;139.446;2023-04-24T03:51:36;8;7;
48893;PMS5003;34710;35.798;139.446;2023-04-24T03:54:01;11;9;
48893;PMS5003;34710;35.798;139.446;2023-04-24T03:56:27;10;9;
48893;PMS5003;34710;35.798;139.446;2023-04-24T03:58:52;9;9;
48893;PMS5003;34710;35.798;139.446;2023-04-24T04:01:17;10;9;
48893;PMS5003;34710;35.798;139.446;2023-04-24T04:03:42;12;9;
48893;PMS5003;34710;35.798;139.446;2023-04-24T04:06:07;10;10;
48893;PMS5003;34710;35.798;139.446;2023-04-24T04:08:32;16;12;
48893;PMS5003;34710;35.798;139.446;2023-04-24T04:10:58;10;10;
48893;PMS5003;34710;35.798;139.446;2023-04-24T04:13:24;20;12;
48893;PMS5003;34710;35.798;139.446;2023-04-24T04:15:49;10;9;
48893;PMS5003;34710;35.798;139.446;2023-04-24T04:18:14;12;11;
48893;PMS5003;34710;35.798;139.446;2023-04-24T04:20:39;13;11;
48893;PMS5003;34710;35.798;139.446;2023-04-24T04:23:05;11;11;
48893;PMS5003;34710;35.798;139.446;2023-04-24T04:25:30;13;13;
48893;PMS5003;34710;35.798;139.446;2023-04-24T04:27:55;14;11;
48893;PMS5003;34710;35.798;139.446;2023-04-24T04:30:21;12;10;
48893;PMS5003;34710;35.798;139.446;2023-04-24T04:32:46;13;11;
48893;PMS5003;34710;35.798;139.446;2023-04-24T04:35:11;9;9;
48893;PMS5003;34710;35.798;139.446;2023-04-24T04:37:36;12;11;
48893;PMS5003;34710;35.798;139.446;2023-04-24T04:40:02;11;11;
48893;PMS5003;34710;35.798;139.446;2023-04-24T04:42:27;17;13;
48893;PMS5003;34710;35.798;139.446;2023-04-24T04:44:52;11;11;
48893;PMS5003;34710;35.798;139.446;2023-04-24T04:47:18;19;12;
48893;PMS5003;34710;35.798;139.446;2023-04-24T04:49:43;11;10;
48893;PMS5003;34710;35.798;139.446;2023-04-24T04:52:08;13;12;
48893;PMS5003;34710;35.798;139.446;2023-04-24T04:54:33;16;12;
48893;PMS5003;34710;35.798;139.446;2023-04-24T04:56:59;13;10;
48893;PMS5003;34710;35.798;139.446;2023-04-24T04:59:24;11;9;
48893;PMS5003;34710;35.798;139.446;2023-04-24T05:01:49;20;14;
48893;PMS5003;34710;35.798;139.446;2023-04-24T05:04:15;12;11;
48893;PMS5003;34710;35.798;139.446;2023-04-24T05:06:40;16;14;
48893;PMS5003;34710;35.798;139.446;2023-04-24T05:09:06;15;14;
48893;PMS5003;34710;35.798;139.446;2023-04-24T05:11:31;15;12;
48893;PMS5003;34710;35.798;139.446;2023-04-24T05:13:57;13;12;
48893;PMS5003;34710;35.798;139.446;2023-04-24T05:16:22;15;11;
48893;PMS5003;34710;35.798;139.446;2023-04-24T05:18:48;12;12;
48893;PMS5003;34710;35.798;139.446;2023-04-24T05:21:13;13;12;
48893;PMS5003;34710;35.798;139.446;2023-04-24T05:23:39;13;12;
48893;PMS5003;34710;35.798;139.446;2023-04-24T05:26:05;11;10;
48893;PMS5003;34710;35.798;139.446;2023-04-24T05:28:30;12;12;
48893;PMS5003;34710;35.798;139.446;2023-04-24T05:30:56;15;12;
48893;PMS5003;34710;35.798;139.446;2023-04-24T05:33:21;14;11;
48893;PMS5003;34710;35.798;139.446;2023-04-24T05:35:46;17;11;
48893;PMS5003;34710;35.798;139.446;2023-04-24T05:38:11;16;14;
48893;PMS5003;34710;35.798;139.446;2023-04-24T05:40:37;12;10;
48893;PMS5003;34710;35.798;139.446;2023-04-24T05:43:03;15;13;
48893;PMS5003;34710;35.798;139.446;2023-04-24T05:45:28;13;12;
48893;PMS5003;34710;35.798;139.446;2023-04-24T05:47:53;12;12;
48893;PMS5003;34710;35.798;139.446;2023-04-24T05:50:19;16;11;
48893;PMS5003;34710;35.798;139.446;2023-04-24T05:52:45;13;12;
48893;PMS5003;34710;35.798;139.446;2023-04-24T05:55:11;14;13;
48893;PMS5003;34710;35.798;139.446;2023-04-24T05:57:36;13;13;
48893;PMS5003;34710;35.798;139.446;2023-04-24T06:00:02;16;13;
48893;PMS5003;34710;35.798;139.446;2023-04-24T06:02:27;12;10;
48893;PMS5003;34710;35.798;139.446;2023-04-24T06:04:53;13;13;
48893;PMS5003;34710;35.798;139.446;2023-04-24T06:07:18;16;11;
48893;PMS5003;34710;35.798;139.446;2023-04-24T06:09:43;14;13;
48893;PMS5003;34710;35.798;139.446;2023-04-24T06:12:09;14;12;
48893;PMS5003;34710;35.798;139.446;2023-04-24T06:14:34;17;13;
48893;PMS5003;34710;35.798;139.446;2023-04-24T06:16:59;13;13;
48893;PMS5003;34710;35.798;139.446;2023-04-24T06:19:25;16;14;
48893;PMS5003;34710;35.798;139.446;2023-04-24T06:21:50;21;14;
48893;PMS5003;34710;35.798;139.446;2023-04-24T06:24:15;12;12;
48893;PMS5003;34710;35.798;139.446;2023-04-24T06:26:41;12;12;
48893;PMS5003;34710;35.798;139.446;2023-04-24T06:29:06;14;13;
48893;PMS5003;34710;35.798;139.446;2023-04-24T06:31:31;14;13;
48893;PMS5003;34710;35.798;139.446;2023-04-24T06:33:56;17;12;
48893;PMS5003;34710;35.798;139.446;2023-04-24T06:36:22;12;11;
48893;PMS5003;34710;35.798;139.446;2023-04-24T06:38:48;16;14;
48893;PMS5003;34710;35.798;139.446;2023-04-24T06:41:14;16;13;
48893;PMS5003;34710;35.798;139.446;2023-04-24T06:43:39;14;13;
48893;PMS5003;34710;35.798;139.446;2023-04-24T06:46:04;16;10;
48893;PMS5003;34710;35.798;139.446;2023-04-24T06:48:30;10;10;
48893;PMS5003;34710;35.798;139.446;2023-04-24T06:50:55;14;13;
48893;PMS5003;34710;35.798;139.446;2023-04-24T06:53:21;12;12;
48893;PMS5003;34710;35.798;139.446;2023-04-24T06:55:46;13;13;
48893;PMS5003;34710;35.798;139.446;2023-04-24T06:58:12;15;13;
48893;PMS5003;34710;35.798;139.446;2023-04-24T07:00:37;13;12;
48893;PMS5003;34710;35.798;139.446;2023-04-24T07:03:02;13;13;
48893;PMS5003;34710;35.798;139.446;2023-04-24T07:05:28;14;14;
48893;PMS5003;34710;35.798;139.446;2023-04-24T07:07:53;13;11;
48893;PMS5003;34710;35.798;139.446;2023-04-24T07:10:18;14;14;
48893;PMS5003;34710;35.798;139.446;2023-04-24T07:12:44;12;12;
48893;PMS5003;34710;35.798;139.446;2023-04-24T07:15:09;14;12;
48893;PMS5003;34710;35.798;139.446;2023-04-24T07:17:34;16;12;
48893;PMS5003;34710;35.798;139.446;2023-04-24T07:19:59;14;13;
48893;PMS5003;34710;35.798;139.446;2023-04-24T07:22:24;15;12;
48893;PMS5003;34710;35.798;139.446;2023-04-24T07:24:49;14;12;
48893;PMS5003;34710;35.798;139.446;2023-04-24T07:27:15;25;13;
48893;PMS5003;34710;35.798;139.446;2023-04-24T07:29:41;25;12;
48893;PMS5003;34710;35.798;139.446;2023-04-24T07:32:06;13;12;
48893;PMS5003;34710;35.798;139.446;2023-04-24T07:34:31;13;11;
48893;PMS5003;34710;35.798;139.446;2023-04-24T07:36:56;13;12;
48893;PMS5003;34710;35.798;139.446;2023-04-24T07:39:21;15;12;
48893;PMS5003;34710;35.798;139.446;2023-04-24T07:41:47;15;12;
48893;PMS5003;34710;35.798;139.446;2023-04-24T07:44:12;15;12;
48893;PMS5003;34710;35.798;139.446;2023-04-24T07:46:38;28;19;
48893;PMS5003;34710;35.798;139.446;2023-04-24T07:49:03;13;13;
48893;PMS5003;34710;35.798;139.446;2023-04-24T07:51:28;15;13;
48893;PMS5003;34710;35.798;139.446;2023-04-24T07:53:55;10;10;
48893;PMS5003;34710;35.798;139.446;2023-04-24T07:56:19;16;14;
48893;PMS5003;34710;35.798;139.446;2023-04-24T07:58:45;19;13;
48893;PMS5003;34710;35.798;139.446;2023-04-24T08:01:11;13;13;
48893;PMS5003;34710;35.798;139.446;2023-04-24T08:03:36;15;13;
48893;PMS5003;34710;35.798;139.446;2023-04-24T08:06:01;15;14;
48893;PMS5003;34710;35.798;139.446;2023-04-24T08:08:27;16;12;
48893;PMS5003;34710;35.798;139.446;2023-04-24T08:10:52;16;13;
48893;PMS5003;34710;35.798;139.446;2023-04-24T08:13:17;15;11;
48893;PMS5003;34710;35.798;139.446;2023-04-24T08:15:42;16;14;
48893;PMS5003;34710;35.798;139.446;2023-04-24T08:18:07;14;13;
48893;PMS5003;34710;35.798;139.446;2023-04-24T08:20:32;23;13;
48893;PMS5003;34710;35.798;139.446;2023-04-24T08:22:58;17;12;
48893;PMS5003;34710;35.798;139.446;2023-04-24T08:25:24;20;12;
48893;PMS5003;34710;35.798;139.446;2023-04-24T08:27:49;16;15;
48893;PMS5003;34710;35.798;139.446;2023-04-24T08:30:14;22;15;
48893;PMS5003;34710;35.798;139.446;2023-04-24T08:32:41;15;14;
48893;PMS5003;34710;35.798;139.446;2023-04-24T08:35:07;15;12;
48893;PMS5003;34710;35.798;139.446;2023-04-24T08:37:31;15;12;
48893;PMS5003;34710;35.798;139.446;2023-04-24T08:39:57;15;15;
48893;PMS5003;34710;35.798;139.446;2023-04-24T08:42:23;26;14;
48893;PMS5003;34710;35.798;139.446;2023-04-24T08:44:49;16;11;
48893;PMS5003;34710;35.798;139.446;2023-04-24T08:47:14;22;16;
48893;PMS5003;34710;35.798;139.446;2023-04-24T08:49:39;20;18;
48893;PMS5003;34710;35.798;139.446;2023-04-24T08:52:05;18;16;
48893;PMS5003;34710;35.798;139.446;2023-04-24T08:54:30;11;11;
48893;PMS5003;34710;35.798;139.446;2023-04-24T08:56:57;18;14;
48893;PMS5003;34710;35.798;139.446;2023-04-24T08:59:22;14;14;
48893;PMS5003;34710;35.798;139.446;2023-04-24T09:01:47;14;11;
48893;PMS5003;34710;35.798;139.446;2023-04-24T09:04:12;18;16;
48893;PMS5003;34710;35.798;139.446;2023-04-24T09:06:37;17;14;
48893;PMS5003;34710;35.798;139.446;2023-04-24T09:09:02;14;12;
48893;PMS5003;34710;35.798;139.446;2023-04-24T09:11:29;17;13;
48893;PMS5003;34710;35.798;139.446;2023-04-24T09:13:53;14;13;
48893;PMS5003;34710;35.798;139.446;2023-04-24T09:16:19;18;13;
48893;PMS5003;34710;35.798;139.446;2023-04-24T09:18:45;17;15;
48893;PMS5003;34710;35.798;139.446;2023-04-24T09:21:10;15;13;
48893;PMS5003;34710;35.798;139.446;2023-04-24T09:23:36;16;13;
48893;PMS5003;34710;35.798;139.446;2023-04-24T09:26:01;15;14;
48893;PMS5003;34710;35.798;139.446;2023-04-24T09:28:28;18;15;
48893;PMS5003;34710;35.798;139.446;2023-04-24T09:33:18;13;11;
48893;PMS5003;34710;35.798;139.446;2023-04-24T09:38:09;16;15;
48893;PMS5003;34710;35.798;139.446;2023-04-24T09:40:34;22;15;
48893;PMS5003;34710;35.798;139.446;2023-04-24T09:43:00;20;16;
48893;PMS5003;34710;35.798;139.446;2023-04-24T09:45:27;18;13;
48893;PMS5003;34710;35.798;139.446;2023-04-24T09:47:51;21;20;
48893;PMS5003;34710;35.798;139.446;2023-04-24T09:50:16;17;14;
48893;PMS5003;34710;35.798;139.446;2023-04-24T09:52:42;19;14;
48893;PMS5003;34710;35.798;139.446;2023-04-24T09:55:11;16;15;
48893;PMS5003;34710;35.798;139.446;2023-04-24T09:57:32;21;16;
48893;PMS5003;34710;35.798;139.446;2023-04-24T09:59:58;18;17;
48893;PMS5003;34710;35.798;139.446;2023-04-24T10:02:23;24;14;
48893;PMS5003;34710;35.798;139.446;2023-04-24T10:07:15;17;17;
48893;PMS5003;34710;35.798;139.446;2023-04-24T10:09:40;20;16;
48893;PMS5003;34710;35.798;139.446;2023-04-24T10:12:05;17;16;
48893;PMS5003;34710;35.798;139.446;2023-04-24T10:14:30;17;14;
48893;PMS5003;34710;35.798;139.446;2023-04-24T10:16:55;20;16;
48893;PMS5003;34710;35.798;139.446;2023-04-24T10:19:21;18;16;
48893;PMS5003;34710;35.798;139.446;2023-04-24T10:21:47;17;15;
48893;PMS5003;34710;35.798;139.446;2023-04-24T10:24:12;20;16;
48893;PMS5003;34710;35.798;139.446;2023-04-24T10:26:38;19;16;
48893;PMS5003;34710;35.798;139.446;2023-04-24T10:29:04;18;16;
48893;PMS5003;34710;35.798;139.446;2023-04-24T10:31:31;15;14;
48893;PMS5003;34710;35.798;139.446;2023-04-24T10:33:55;17;14;
48893;PMS5003;34710;35.798;139.446;2023-04-24T10:36:20;17;15;
48893;PMS5003;34710;35.798;139.446;2023-04-24T10:38:45;21;17;
48893;PMS5003;34710;35.798;139.446;2023-04-24T10:41:11;16;15;
48893;PMS5003;34710;35.798;139.446;2023-04-24T10:43:37;16;16;
48893;PMS5003;34710;35.798;139.446;2023-04-24T10:46:02;19;16;
48893;PMS5003;34710;35.798;139.446;2023-04-24T10:48:28;19;15;
48893;PMS5003;34710;35.798;139.446;2023-04-24T10:50:54;22;17;
48893;PMS5003;34710;35.798;139.446;2023-04-24T10:53:21;25;19;
48893;PMS5003;34710;35.798;139.446;2023-04-24T10:55:46;15;15;
48893;PMS5003;34710;35.798;139.446;2023-04-24T10:58:10;20;19;
48893;PMS5003;34710;35.798;139.446;2023-04-24T11:00:37;16;15;
48893;PMS5003;34710;35.798;139.446;2023-04-24T11:03:01;15;15;
48893;PMS5003;34710;35.798;139.446;2023-04-24T11:12:43;21;17;
48893;PMS5003;34710;35.798;139.446;2023-04-24T11:15:10;18;17;
48893;PMS5003;34710;35.798;139.446;2023-04-24T11:17:34;19;17;
48893;PMS5003;34710;35.798;139.446;2023-04-24T11:20:03;18;15;
48893;PMS5003;34710;35.798;139.446;2023-04-24T11:22:24;30;19;
48893;PMS5003;34710;35.798;139.446;2023-04-24T11:24:50;23;18;
48893;PMS5003;34710;35.798;139.446;2023-04-24T11:27:16;18;17;
48893;PMS5003;34710;35.798;139.446;2023-04-24T11:29:42;16;15;
48893;PMS5003;34710;35.798;139.446;2023-04-24T11:34:32;18;15;
48893;PMS5003;34710;35.798;139.446;2023-04-24T11:36:57;18;17;
48893;PMS5003;34710;35.798;139.446;2023-04-24T11:39:23;25;16;
48893;PMS5003;34710;35.798;139.446;2023-04-24T11:41:48;20;18;
48893;PMS5003;34710;35.798;139.446;2023-04-24T11:44:14;19;17;
48893;PMS5003;34710;35.798;139.446;2023-04-24T11:46:39;18;17;
48893;PMS5003;34710;35.798;139.446;2023-04-24T11:49:05;19;18;
48893;PMS5003;34710;35.798;139.446;2023-04-24T11:51:31;20;18;
48893;PMS5003;34710;35.798;139.446;2023-04-24T11:53:56;19;17;
48893;PMS5003;34710;35.798;139.446;2023-04-24T11:56:23;20;14;
48893;PMS5003;34710;35.798;139.446;2023-04-24T11:58:48;29;19;
48893;PMS5003;34710;35.798;139.446;2023-04-24T12:01:14;27;17;
48893;PMS5003;34710;35.798;139.446;2023-04-24T12:03:39;19;18;
48893;PMS5003;34710;35.798;139.446;2023-04-24T12:06:05;33;20;
48893;PMS5003;34710;35.798;139.446;2023-04-24T12:08:30;20;15;
48893;PMS5003;34710;35.798;139.446;2023-04-24T12:10:56;22;17;
48893;PMS5003;34710;35.798;139.446;2023-04-24T12:13:20;20;17;
48893;PMS5003;34710;35.798;139.446;2023-04-24T12:15:46;19;17;
48893;PMS5003;34710;35.798;139.446;2023-04-24T12:18:12;18;16;
48893;PMS5003;34710;35.798;139.446;2023-04-24T12:20:38;24;17;
48893;PMS5003;34710;35.798;139.446;2023-04-24T12:23:03;19;18;
48893;PMS5003;34710;35.798;139.446;2023-04-24T12:25:29;19;18;
48893;PMS5003;34710;35.798;139.446;2023-04-24T12:28:09;17;17;
48893;PMS5003;34710;35.798;139.446;2023-04-24T12:30:20;23;20;
48893;PMS5003;34710;35.798;139.446;2023-04-24T12:32:46;20;18;
48893;PMS5003;34710;35.798;139.446;2023-04-24T12:35:10;32;17;
48893;PMS5003;34710;35.798;139.446;2023-04-24T12:37:36;22;17;
48893;PMS5003;34710;35.798;139.446;2023-04-24T12:40:03;34;18;
48893;PMS5003;34710;35.798;139.446;2023-04-24T12:42:28;29;21;
48893;PMS5003;34710;35.798;139.446;2023-04-24T12:44:55;25;19;
48893;PMS5003;34710;35.798;139.446;2023-04-24T12:47:18;31;19;
48893;PMS5003;34710;35.798;139.446;2023-04-24T12:49:44;34;20;
48893;PMS5003;34710;35.798;139.446;2023-04-24T12:52:10;20;20;
48893;PMS5003;34710;35.798;139.446;2023-04-24T12:54:36;33;16;
48893;PMS5003;34710;35.798;139.446;2023-04-24T12:57:01;18;18;
48893;PMS5003;34710;35.798;139.446;2023-04-24T12:59:27;23;19;
48893;PMS5003;34710;35.798;139.446;2023-04-24T13:01:52;20;16;
48893;PMS5003;34710;35.798;139.446;2023-04-24T13:04:17;15;15;
48893;PMS5003;34710;35.798;139.446;2023-04-24T13:06:43;19;15;
48893;PMS5003;34710;35.798;139.446;2023-04-24T13:09:09;27;15;
48893;PMS5003;34710;35.798;139.446;2023-04-24T13:11:35;16;16;
48893;PMS5003;34710;35.798;139.446;2023-04-24T13:14:00;18;16;
48893;PMS5003;34710;35.798;139.446;2023-04-24T13:16:26;18;16;
48893;PMS5003;34710;35.798;139.446;2023-04-24T13:18:51;15;15;
48893;PMS5003;34710;35.798;139.446;2023-04-24T13:21:17;19;16;
48893;PMS5003;34710;35.798;139.446;2023-04-24T13:23:43;20;16;
48893;PMS5003;34710;35.798;139.446;2023-04-24T13:26:08;17;16;
48893;PMS5003;34710;35.798;139.446;2023-04-24T13:28:34;18;16;
48893;PMS5003;34710;35.798;139.446;2023-04-24T13:30:59;18;15;
48893;PMS5003;34710;35.798;139.446;2023-04-24T13:33:26;17;15;
48893;PMS5003;34710;35.798;139.446;2023-04-24T13:35:52;13;13;
48893;PMS5003;34710;35.798;139.446;2023-04-24T13:38:16;17;17;
48893;PMS5003;34710;35.798;139.446;2023-04-24T13:40:42;16;15;
48893;PMS5003;34710;35.798;139.446;2023-04-24T13:43:07;25;17;
48893;PMS5003;34710;35.798;139.446;2023-04-24T13:45:33;15;14;
48893;PMS5003;34710;35.798;139.446;2023-04-24T13:47:59;19;17;
48893;PMS5003;34710;35.798;139.446;2023-04-24T13:50:24;13;13;
48893;PMS5003;34710;35.798;139.446;2023-04-24T13:52:49;15;13;
48893;PMS5003;34710;35.798;139.446;2023-04-24T13:55:14;18;16;
48893;PMS5003;34710;35.798;139.446;2023-04-24T13:57:41;27;18;
48893;PMS5003;34710;35.798;139.446;2023-04-24T14:00:07;15;15;
48893;PMS5003;34710;35.798;139.446;2023-04-24T14:02:32;15;15;
48893;PMS5003;34710;35.798;139.446;2023-04-24T14:04:57;19;15;
48893;PMS5003;34710;35.798;139.446;2023-04-24T14:07:22;18;16;
48893;PMS5003;34710;35.798;139.446;2023-04-24T14:09:48;17;15;
48893;PMS5003;34710;35.798;139.446;2023-04-24T14:12:13;17;15;
48893;PMS5003;34710;35.798;139.446;2023-04-24T14:14:39;15;15;
48893;PMS5003;34710;35.798;139.446;2023-04-24T14:17:04;18;15;
48893;PMS5003;34710;35.798;139.446;2023-04-24T14:19:30;27;17;
48893;PMS5003;34710;35.798;139.446;2023-04-24T14:21:54;19;14;
48893;PMS5003;34710;35.798;139.446;2023-04-24T14:24:20;15;13;
48893;PMS5003;34710;35.798;139.446;2023-04-24T14:26:45;19;15;
48893;PMS5003;34710;35.798;139.446;2023-04-24T14:29:11;20;15;
48893;PMS5003;34710;35.798;139.446;2023-04-24T14:31:37;14;14;
48893;PMS5003;34710;35.798;139.446;2023-04-24T14:34:02;14;12;
48893;PMS5003;34710;35.798;139.446;2023-04-24T14:36:27;16;14;
48893;PMS5003;34710;35.798;139.446;2023-04-24T14:38:52;15;15;
48893;PMS5003;34710;35.798;139.446;2023-04-24T14:41:17;15;15;
48893;PMS5003;34710;35.798;139.446;2023-04-24T14:43:43;17;16;
48893;PMS5003;34710;35.798;139.446;2023-04-24T14:46:10;27;14;
48893;PMS5003;34710;35.798;139.446;2023-04-24T14:48:35;16;15;
48893;PMS5003;34710;35.798;139.446;2023-04-24T14:51:00;17;15;
48893;PMS5003;34710;35.798;139.446;2023-04-24T14:53:26;15;13;
48893;PMS5003;34710;35.798;139.446;2023-04-24T14:55:52;18;17;
48893;PMS5003;34710;35.798;139.446;2023-04-24T14:58:17;18;16;
48893;PMS5003;34710;35.798;139.446;2023-04-24T15:00:42;18;17;
48893;PMS5003;34710;35.798;139.446;2023-04-24T15:03:07;22;17;
48893;PMS5003;34710;35.798;139.446;2023-04-24T15:05:33;19;16;
48893;PMS5003;34710;35.798;139.446;2023-04-24T15:07:59;18;16;
48893;PMS5003;34710;35.798;139.446;2023-04-24T15:10:24;16;14;
48893;PMS5003;34710;35.798;139.446;2023-04-24T15:12:49;19;15;
48893;PMS5003;34710;35.798;139.446;2023-04-24T15:15:15;20;18;
48893;PMS5003;34710;35.798;139.446;2023-04-24T15:17:41;14;14;
48893;PMS5003;34710;35.798;139.446;2023-04-24T15:20:06;17;17;
48893;PMS5003;34710;35.798;139.446;2023-04-24T15:22:31;14;13;
48893;PMS5003;34710;35.798;139.446;2023-04-24T15:24:56;17;15;
48893;PMS5003;34710;35.798;139.446;2023-04-24T15:27:21;14;14;
48893;PMS5003;34710;35.798;139.446;2023-04-24T15:29:47;13;12;
48893;PMS5003;34710;35.798;139.446;2023-04-24T15:32:12;20;17;
48893;PMS5003;34710;35.798;139.446;2023-04-24T15:34:37;18;16;
48893;PMS5003;34710;35.798;139.446;2023-04-24T15:37:05;15;14;
48893;PMS5003;34710;35.798;139.446;2023-04-24T15:39:29;17;15;
48893;PMS5003;34710;35.798;139.446;2023-04-24T15:41:54;19;16;
48893;PMS5003;34710;35.798;139.446;2023-04-24T15:44:19;16;15;
48893;PMS5003;34710;35.798;139.446;2023-04-24T15:46:45;19;15;
48893;PMS5003;34710;35.798;139.446;2023-04-24T15:49:11;15;15;
48893;PMS5003;34710;35.798;139.446;2023-04-24T15:51:36;17;17;
48893;PMS5003;34710;35.798;139.446;2023-04-24T15:54:01;15;14;